sensor_id;sensor_type;location;lat;lon;timestamp;P1;durP1;ratioP1;P2;durP2;ratioP2
17566;SDS011;8901;52.088;5.084;2023-07-31T00:00:29;5.03;;;3.17;;
17566;SDS011;8901;52.088;5.084;2023-07-31T00:02:56;6.73;;;3.33;;
17566;SDS011;8901;52.088;5.084;2023-07-31T00:05:23;9.73;;;4.47;;
17566;SDS011;8901;52.088;5.084;2023-07-31T00:07:50;10.83;;;4.50;;
17566;SDS011;8901;52.088;5.084;2023-07-31T00:10:20;13.40;;;5.20;;
17566;SDS011;8901;52.088;5.084;2023-07-31T00:12:47;11.73;;;4.53;;
17566;SDS011;8901;52.088;5.084;2023-07-31T00:15:15;12.18;;;5.38;;
17566;SDS011;8901;52.088;5.084;2023-07-31T00:17:42;15.40;;;5.80;;
17566;SDS011;8901;52.088;5.084;2023-07-31T00:20:10;18.08;;;6.10;;
17566;SDS011;8901;52.088;5.084;2023-07-31T00:22:37;13.60;;;5.30;;
17566;SDS011;8901;52.088;5.084;2023-07-31T00:25:04;21.83;;;7.17;;
17566;SDS011;8901;52.088;5.084;2023-07-31T00:27:33;17.03;;;6.07;;
17566;SDS011;8901;52.088;5.084;2023-07-31T00:30:00;19.83;;;7.30;;
17566;SDS011;8901;52.088;5.084;2023-07-31T00:32:27;13.07;;;6.40;;
17566;SDS011;8901;52.088;5.084;2023-07-31T00:34:54;18.10;;;7.05;;
17566;SDS011;8901;52.088;5.084;2023-07-31T00:37:22;13.67;;;5.90;;
17566;SDS011;8901;52.088;5.084;2023-07-31T00:39:49;19.88;;;6.40;;
17566;SDS011;8901;52.088;5.084;2023-07-31T00:42:16;17.77;;;6.90;;
17566;SDS011;8901;52.088;5.084;2023-07-31T00:44:45;16.00;;;5.77;;
17566;SDS011;8901;52.088;5.084;2023-07-31T00:47:12;13.88;;;6.40;;
17566;SDS011;8901;52.088;5.084;2023-07-31T00:49:39;12.30;;;6.30;;
17566;SDS011;8901;52.088;5.084;2023-07-31T00:52:07;16.03;;;6.33;;
17566;SDS011;8901;52.088;5.084;2023-07-31T00:54:34;17.17;;;6.53;;
17566;SDS011;8901;52.088;5.084;2023-07-31T00:57:01;15.37;;;6.17;;
17566;SDS011;8901;52.088;5.084;2023-07-31T00:59:29;17.33;;;6.57;;
17566;SDS011;8901;52.088;5.084;2023-07-31T01:01:59;14.60;;;6.40;;
17566;SDS011;8901;52.088;5.084;2023-07-31T01:04:26;15.23;;;6.00;;
17566;SDS011;8901;52.088;5.084;2023-07-31T01:06:56;11.77;;;5.73;;
17566;SDS011;8901;52.088;5.084;2023-07-31T01:09:29;16.27;;;6.23;;
17566;SDS011;8901;52.088;5.084;2023-07-31T01:11:57;13.13;;;5.70;;
17566;SDS011;8901;52.088;5.084;2023-07-31T01:14:27;10.53;;;5.03;;
17566;SDS011;8901;52.088;5.084;2023-07-31T01:16:54;15.43;;;6.90;;
17566;SDS011;8901;52.088;5.084;2023-07-31T01:19:23;13.90;;;6.10;;
17566;SDS011;8901;52.088;5.084;2023-07-31T01:24:35;10.83;;;5.33;;
17566;SDS011;8901;52.088;5.084;2023-07-31T01:27:06;18.80;;;6.13;;
17566;SDS011;8901;52.088;5.084;2023-07-31T01:29:37;14.60;;;5.57;;
17566;SDS011;8901;52.088;5.084;2023-07-31T01:32:05;11.77;;;5.50;;
17566;SDS011;8901;52.088;5.084;2023-07-31T01:34:33;13.83;;;5.20;;
17566;SDS011;8901;52.088;5.084;2023-07-31T01:37:01;14.80;;;5.65;;
17566;SDS011;8901;52.088;5.084;2023-07-31T01:39:28;14.10;;;7.03;;
17566;SDS011;8901;52.088;5.084;2023-07-31T01:41:55;15.33;;;6.20;;
17566;SDS011;8901;52.088;5.084;2023-07-31T01:44:24;14.03;;;6.37;;
17566;SDS011;8901;52.088;5.084;2023-07-31T01:46:51;11.30;;;5.33;;
17566;SDS011;8901;52.088;5.084;2023-07-31T01:49:18;14.73;;;5.30;;
17566;SDS011;8901;52.088;5.084;2023-07-31T01:51:46;12.00;;;5.13;;
17566;SDS011;8901;52.088;5.084;2023-07-31T01:54:13;14.57;;;5.60;;
17566;SDS011;8901;52.088;5.084;2023-07-31T01:56:40;11.40;;;4.70;;
17566;SDS011;8901;52.088;5.084;2023-07-31T01:59:07;10.07;;;4.87;;
17566;SDS011;8901;52.088;5.084;2023-07-31T02:01:36;12.10;;;5.30;;
17566;SDS011;8901;52.088;5.084;2023-07-31T02:04:03;10.57;;;4.80;;
17566;SDS011;8901;52.088;5.084;2023-07-31T02:06:30;11.83;;;5.40;;
17566;SDS011;8901;52.088;5.084;2023-07-31T02:08:57;9.50;;;4.93;;
17566;SDS011;8901;52.088;5.084;2023-07-31T02:11:24;11.40;;;5.30;;
17566;SDS011;8901;52.088;5.084;2023-07-31T02:13:52;13.13;;;5.77;;
17566;SDS011;8901;52.088;5.084;2023-07-31T02:16:19;11.93;;;5.30;;
17566;SDS011;8901;52.088;5.084;2023-07-31T02:18:48;13.30;;;5.87;;
17566;SDS011;8901;52.088;5.084;2023-07-31T02:21:15;11.60;;;5.77;;
17566;SDS011;8901;52.088;5.084;2023-07-31T02:23:43;10.60;;;5.03;;
17566;SDS011;8901;52.088;5.084;2023-07-31T02:26:10;12.57;;;5.67;;
17566;SDS011;8901;52.088;5.084;2023-07-31T02:28:37;12.83;;;5.20;;
17566;SDS011;8901;52.088;5.084;2023-07-31T02:31:07;15.73;;;5.73;;
17566;SDS011;8901;52.088;5.084;2023-07-31T02:33:35;12.53;;;5.37;;
17566;SDS011;8901;52.088;5.084;2023-07-31T02:36:03;11.70;;;5.63;;
17566;SDS011;8901;52.088;5.084;2023-07-31T02:38:31;13.27;;;5.37;;
17566;SDS011;8901;52.088;5.084;2023-07-31T02:40:58;16.17;;;5.80;;
17566;SDS011;8901;52.088;5.084;2023-07-31T02:43:25;17.07;;;6.47;;
17566;SDS011;8901;52.088;5.084;2023-07-31T02:45:52;15.57;;;5.87;;
17566;SDS011;8901;52.088;5.084;2023-07-31T02:48:19;14.73;;;6.90;;
17566;SDS011;8901;52.088;5.084;2023-07-31T02:50:47;22.63;;;7.20;;
17566;SDS011;8901;52.088;5.084;2023-07-31T02:53:16;18.27;;;6.73;;
17566;SDS011;8901;52.088;5.084;2023-07-31T02:55:43;13.23;;;5.97;;
17566;SDS011;8901;52.088;5.084;2023-07-31T02:58:10;17.60;;;7.10;;
17566;SDS011;8901;52.088;5.084;2023-07-31T03:00:41;17.23;;;7.00;;
17566;SDS011;8901;52.088;5.084;2023-07-31T03:03:08;14.07;;;6.17;;
17566;SDS011;8901;52.088;5.084;2023-07-31T03:05:36;16.17;;;6.80;;
17566;SDS011;8901;52.088;5.084;2023-07-31T03:08:03;13.90;;;6.67;;
17566;SDS011;8901;52.088;5.084;2023-07-31T03:10:32;19.87;;;7.30;;
17566;SDS011;8901;52.088;5.084;2023-07-31T03:12:59;16.97;;;7.00;;
17566;SDS011;8901;52.088;5.084;2023-07-31T03:15:26;13.47;;;6.03;;
17566;SDS011;8901;52.088;5.084;2023-07-31T03:17:53;16.53;;;6.87;;
17566;SDS011;8901;52.088;5.084;2023-07-31T03:20:21;20.33;;;7.33;;
17566;SDS011;8901;52.088;5.084;2023-07-31T03:22:48;16.23;;;6.23;;
17566;SDS011;8901;52.088;5.084;2023-07-31T03:25:15;18.27;;;7.17;;
17566;SDS011;8901;52.088;5.084;2023-07-31T03:27:44;13.17;;;6.77;;
17566;SDS011;8901;52.088;5.084;2023-07-31T03:30:11;12.63;;;6.13;;
17566;SDS011;8901;52.088;5.084;2023-07-31T03:32:38;15.20;;;7.37;;
17566;SDS011;8901;52.088;5.084;2023-07-31T03:35:05;18.13;;;5.87;;
17566;SDS011;8901;52.088;5.084;2023-07-31T03:37:33;13.57;;;5.93;;
17566;SDS011;8901;52.088;5.084;2023-07-31T03:40:00;15.90;;;6.23;;
17566;SDS011;8901;52.088;5.084;2023-07-31T03:42:27;15.40;;;6.47;;
17566;SDS011;8901;52.088;5.084;2023-07-31T03:44:56;19.30;;;7.27;;
17566;SDS011;8901;52.088;5.084;2023-07-31T03:47:24;15.27;;;6.93;;
17566;SDS011;8901;52.088;5.084;2023-07-31T03:49:51;15.13;;;6.20;;
17566;SDS011;8901;52.088;5.084;2023-07-31T03:52:19;15.97;;;6.27;;
17566;SDS011;8901;52.088;5.084;2023-07-31T03:54:46;16.80;;;6.07;;
17566;SDS011;8901;52.088;5.084;2023-07-31T03:57:13;18.00;;;7.63;;
17566;SDS011;8901;52.088;5.084;2023-07-31T03:59:40;15.83;;;6.87;;
17566;SDS011;8901;52.088;5.084;2023-07-31T04:02:09;16.57;;;6.67;;
17566;SDS011;8901;52.088;5.084;2023-07-31T04:04:36;14.73;;;6.80;;
17566;SDS011;8901;52.088;5.084;2023-07-31T04:07:03;14.27;;;6.80;;
17566;SDS011;8901;52.088;5.084;2023-07-31T04:09:30;19.03;;;7.60;;
17566;SDS011;8901;52.088;5.084;2023-07-31T04:11:57;12.60;;;6.60;;
17566;SDS011;8901;52.088;5.084;2023-07-31T04:14:25;13.63;;;6.07;;
17566;SDS011;8901;52.088;5.084;2023-07-31T04:16:52;17.13;;;7.47;;
17566;SDS011;8901;52.088;5.084;2023-07-31T04:19:20;14.33;;;7.07;;
17566;SDS011;8901;52.088;5.084;2023-07-31T04:21:48;17.50;;;6.87;;
17566;SDS011;8901;52.088;5.084;2023-07-31T04:24:15;13.03;;;7.00;;
17566;SDS011;8901;52.088;5.084;2023-07-31T04:26:49;11.80;;;6.37;;
17566;SDS011;8901;52.088;5.084;2023-07-31T04:29:16;14.17;;;6.50;;
17566;SDS011;8901;52.088;5.084;2023-07-31T04:31:43;16.60;;;7.00;;
17566;SDS011;8901;52.088;5.084;2023-07-31T04:34:10;19.13;;;7.10;;
17566;SDS011;8901;52.088;5.084;2023-07-31T04:36:39;12.17;;;6.17;;
17566;SDS011;8901;52.088;5.084;2023-07-31T04:39:06;13.30;;;5.97;;
17566;SDS011;8901;52.088;5.084;2023-07-31T04:41:33;10.60;;;6.20;;
17566;SDS011;8901;52.088;5.084;2023-07-31T04:44:00;11.77;;;6.30;;
17566;SDS011;8901;52.088;5.084;2023-07-31T04:46:28;11.00;;;6.20;;
17566;SDS011;8901;52.088;5.084;2023-07-31T04:48:56;11.47;;;6.07;;
17566;SDS011;8901;52.088;5.084;2023-07-31T04:51:23;9.50;;;5.73;;
17566;SDS011;8901;52.088;5.084;2023-07-31T04:53:52;8.40;;;5.43;;
17566;SDS011;8901;52.088;5.084;2023-07-31T04:56:19;10.00;;;5.33;;
17566;SDS011;8901;52.088;5.084;2023-07-31T04:58:46;9.67;;;5.80;;
17566;SDS011;8901;52.088;5.084;2023-07-31T05:01:13;10.07;;;5.60;;
17566;SDS011;8901;52.088;5.084;2023-07-31T05:03:40;10.00;;;5.83;;
17566;SDS011;8901;52.088;5.084;2023-07-31T05:06:08;11.70;;;5.50;;
17566;SDS011;8901;52.088;5.084;2023-07-31T05:08:35;13.30;;;5.60;;
17566;SDS011;8901;52.088;5.084;2023-07-31T05:13:32;8.27;;;4.97;;
17566;SDS011;8901;52.088;5.084;2023-07-31T05:15:59;7.40;;;5.33;;
17566;SDS011;8901;52.088;5.084;2023-07-31T05:18:26;9.93;;;5.20;;
17566;SDS011;8901;52.088;5.084;2023-07-31T05:20:53;7.73;;;4.73;;
17566;SDS011;8901;52.088;5.084;2023-07-31T05:23:21;8.47;;;5.10;;
17566;SDS011;8901;52.088;5.084;2023-07-31T05:25:48;7.70;;;4.80;;
17566;SDS011;8901;52.088;5.084;2023-07-31T05:28:15;7.53;;;5.17;;
17566;SDS011;8901;52.088;5.084;2023-07-31T05:30:43;8.60;;;4.40;;
17566;SDS011;8901;52.088;5.084;2023-07-31T05:33:11;6.43;;;3.87;;
17566;SDS011;8901;52.088;5.084;2023-07-31T05:35:38;7.37;;;5.23;;
17566;SDS011;8901;52.088;5.084;2023-07-31T05:38:05;6.83;;;4.60;;
17566;SDS011;8901;52.088;5.084;2023-07-31T05:40:32;7.93;;;4.90;;
17566;SDS011;8901;52.088;5.084;2023-07-31T05:42:59;6.73;;;4.50;;
17566;SDS011;8901;52.088;5.084;2023-07-31T05:45:26;8.07;;;4.97;;
17566;SDS011;8901;52.088;5.084;2023-07-31T05:47:55;7.03;;;4.70;;
17566;SDS011;8901;52.088;5.084;2023-07-31T05:50:22;7.63;;;5.33;;
17566;SDS011;8901;52.088;5.084;2023-07-31T05:52:49;6.87;;;4.70;;
17566;SDS011;8901;52.088;5.084;2023-07-31T05:55:17;7.60;;;4.60;;
17566;SDS011;8901;52.088;5.084;2023-07-31T05:57:44;7.83;;;4.20;;
17566;SDS011;8901;52.088;5.084;2023-07-31T06:00:11;8.57;;;4.20;;
17566;SDS011;8901;52.088;5.084;2023-07-31T06:02:39;8.27;;;4.50;;
17566;SDS011;8901;52.088;5.084;2023-07-31T06:05:08;5.27;;;4.13;;
17566;SDS011;8901;52.088;5.084;2023-07-31T06:07:35;9.03;;;4.27;;
17566;SDS011;8901;52.088;5.084;2023-07-31T06:10:02;6.27;;;3.70;;
17566;SDS011;8901;52.088;5.084;2023-07-31T06:12:30;5.77;;;4.27;;
17566;SDS011;8901;52.088;5.084;2023-07-31T06:14:57;7.23;;;4.00;;
17566;SDS011;8901;52.088;5.084;2023-07-31T06:17:25;7.53;;;4.03;;
17566;SDS011;8901;52.088;5.084;2023-07-31T06:19:52;4.93;;;4.00;;
17566;SDS011;8901;52.088;5.084;2023-07-31T06:22:20;6.50;;;3.93;;
17566;SDS011;8901;52.088;5.084;2023-07-31T06:24:48;6.43;;;4.03;;
17566;SDS011;8901;52.088;5.084;2023-07-31T06:27:15;6.10;;;3.90;;
17566;SDS011;8901;52.088;5.084;2023-07-31T06:29:42;5.93;;;4.10;;
17566;SDS011;8901;52.088;5.084;2023-07-31T06:32:09;5.53;;;3.73;;
17566;SDS011;8901;52.088;5.084;2023-07-31T06:34:36;5.43;;;3.70;;
17566;SDS011;8901;52.088;5.084;2023-07-31T06:37:04;5.60;;;3.53;;
17566;SDS011;8901;52.088;5.084;2023-07-31T06:39:32;5.40;;;3.77;;
17566;SDS011;8901;52.088;5.084;2023-07-31T06:42:00;5.17;;;3.73;;
17566;SDS011;8901;52.088;5.084;2023-07-31T06:44:27;4.47;;;3.53;;
17566;SDS011;8901;52.088;5.084;2023-07-31T06:46:54;6.17;;;3.90;;
17566;SDS011;8901;52.088;5.084;2023-07-31T06:49:21;4.00;;;3.60;;
17566;SDS011;8901;52.088;5.084;2023-07-31T06:51:48;4.23;;;3.50;;
17566;SDS011;8901;52.088;5.084;2023-07-31T06:54:16;6.43;;;3.77;;
17566;SDS011;8901;52.088;5.084;2023-07-31T06:56:44;4.07;;;3.50;;
17566;SDS011;8901;52.088;5.084;2023-07-31T06:59:11;4.17;;;3.77;;
17566;SDS011;8901;52.088;5.084;2023-07-31T07:01:39;6.30;;;3.97;;
17566;SDS011;8901;52.088;5.084;2023-07-31T07:04:06;5.13;;;3.87;;
17566;SDS011;8901;52.088;5.084;2023-07-31T07:06:33;5.17;;;4.00;;
17566;SDS011;8901;52.088;5.084;2023-07-31T07:09:01;3.40;;;3.10;;
17566;SDS011;8901;52.088;5.084;2023-07-31T07:11:28;5.53;;;3.90;;
17566;SDS011;8901;52.088;5.084;2023-07-31T07:13:56;4.67;;;3.70;;
17566;SDS011;8901;52.088;5.084;2023-07-31T07:16:24;4.67;;;3.77;;
17566;SDS011;8901;52.088;5.084;2023-07-31T07:18:51;4.10;;;3.70;;
17566;SDS011;8901;52.088;5.084;2023-07-31T07:21:18;4.27;;;3.83;;
17566;SDS011;8901;52.088;5.084;2023-07-31T07:23:45;3.73;;;3.33;;
17566;SDS011;8901;52.088;5.084;2023-07-31T07:26:12;5.47;;;3.80;;
17566;SDS011;8901;52.088;5.084;2023-07-31T07:28:40;4.30;;;3.60;;
17566;SDS011;8901;52.088;5.084;2023-07-31T07:31:08;3.60;;;3.23;;
17566;SDS011;8901;52.088;5.084;2023-07-31T07:33:36;5.47;;;3.40;;
17566;SDS011;8901;52.088;5.084;2023-07-31T07:36:03;5.07;;;3.60;;
17566;SDS011;8901;52.088;5.084;2023-07-31T07:38:34;3.60;;;3.30;;
17566;SDS011;8901;52.088;5.084;2023-07-31T07:41:02;4.33;;;3.27;;
17566;SDS011;8901;52.088;5.084;2023-07-31T07:43:29;3.50;;;3.20;;
17566;SDS011;8901;52.088;5.084;2023-07-31T07:45:56;3.40;;;3.00;;
17566;SDS011;8901;52.088;5.084;2023-07-31T07:48:25;3.50;;;3.20;;
17566;SDS011;8901;52.088;5.084;2023-07-31T07:50:52;2.63;;;2.47;;
17566;SDS011;8901;52.088;5.084;2023-07-31T07:53:20;3.10;;;2.80;;
17566;SDS011;8901;52.088;5.084;2023-07-31T07:55:47;3.53;;;2.73;;
17566;SDS011;8901;52.088;5.084;2023-07-31T07:58:14;2.80;;;2.60;;
17566;SDS011;8901;52.088;5.084;2023-07-31T08:00:41;2.80;;;2.50;;
17566;SDS011;8901;52.088;5.084;2023-07-31T08:03:08;5.13;;;3.10;;
17566;SDS011;8901;52.088;5.084;2023-07-31T08:05:37;4.00;;;2.93;;
17566;SDS011;8901;52.088;5.084;2023-07-31T08:08:04;5.13;;;3.20;;
17566;SDS011;8901;52.088;5.084;2023-07-31T08:10:32;4.17;;;3.13;;
17566;SDS011;8901;52.088;5.084;2023-07-31T08:12:59;3.17;;;2.87;;
17566;SDS011;8901;52.088;5.084;2023-07-31T08:15:26;3.40;;;3.10;;
17566;SDS011;8901;52.088;5.084;2023-07-31T08:17:53;3.03;;;2.60;;
17566;SDS011;8901;52.088;5.084;2023-07-31T08:20:21;3.00;;;2.80;;
17566;SDS011;8901;52.088;5.084;2023-07-31T08:22:49;2.93;;;2.73;;
17566;SDS011;8901;52.088;5.084;2023-07-31T08:25:18;3.13;;;2.93;;
17566;SDS011;8901;52.088;5.084;2023-07-31T08:27:45;2.97;;;2.77;;
17566;SDS011;8901;52.088;5.084;2023-07-31T08:30:13;3.00;;;2.80;;
17566;SDS011;8901;52.088;5.084;2023-07-31T08:32:40;4.10;;;2.90;;
17566;SDS011;8901;52.088;5.084;2023-07-31T08:35:07;3.00;;;2.80;;
17566;SDS011;8901;52.088;5.084;2023-07-31T08:37:34;3.07;;;2.87;;
17566;SDS011;8901;52.088;5.084;2023-07-31T08:40:04;3.10;;;2.90;;
17566;SDS011;8901;52.088;5.084;2023-07-31T08:42:31;3.47;;;3.17;;
17566;SDS011;8901;52.088;5.084;2023-07-31T08:44:59;3.17;;;2.97;;
17566;SDS011;8901;52.088;5.084;2023-07-31T08:47:26;2.93;;;2.73;;
17566;SDS011;8901;52.088;5.084;2023-07-31T08:49:54;3.10;;;2.90;;
17566;SDS011;8901;52.088;5.084;2023-07-31T08:52:22;2.90;;;2.80;;
17566;SDS011;8901;52.088;5.084;2023-07-31T08:54:50;3.57;;;3.27;;
17566;SDS011;8901;52.088;5.084;2023-07-31T08:57:18;3.57;;;3.37;;
17566;SDS011;8901;52.088;5.084;2023-07-31T08:59:46;3.20;;;3.00;;
17566;SDS011;8901;52.088;5.084;2023-07-31T09:02:13;3.20;;;3.00;;
17566;SDS011;8901;52.088;5.084;2023-07-31T09:04:42;3.20;;;3.00;;
17566;SDS011;8901;52.088;5.084;2023-07-31T09:07:09;3.30;;;2.67;;
17566;SDS011;8901;52.088;5.084;2023-07-31T09:09:38;3.25;;;2.95;;
17566;SDS011;8901;52.088;5.084;2023-07-31T09:12:06;3.03;;;2.83;;
17566;SDS011;8901;52.088;5.084;2023-07-31T09:14:35;3.77;;;2.80;;
17566;SDS011;8901;52.088;5.084;2023-07-31T09:17:03;2.87;;;2.67;;
17566;SDS011;8901;52.088;5.084;2023-07-31T09:19:32;3.10;;;2.90;;
17566;SDS011;8901;52.088;5.084;2023-07-31T09:22:02;3.03;;;2.83;;
17566;SDS011;8901;52.088;5.084;2023-07-31T09:24:30;2.90;;;2.70;;
17566;SDS011;8901;52.088;5.084;2023-07-31T09:26:58;6.97;;;4.03;;
17566;SDS011;8901;52.088;5.084;2023-07-31T09:29:26;3.20;;;3.00;;
17566;SDS011;8901;52.088;5.084;2023-07-31T09:31:56;3.20;;;3.00;;
17566;SDS011;8901;52.088;5.084;2023-07-31T09:34:28;5.73;;;2.93;;
17566;SDS011;8901;52.088;5.084;2023-07-31T09:36:57;3.00;;;2.80;;
17566;SDS011;8901;52.088;5.084;2023-07-31T09:39:25;2.90;;;2.60;;
17566;SDS011;8901;52.088;5.084;2023-07-31T09:41:53;3.37;;;3.10;;
17566;SDS011;8901;52.088;5.084;2023-07-31T09:44:21;3.00;;;2.87;;
17566;SDS011;8901;52.088;5.084;2023-07-31T09:46:48;2.83;;;2.70;;
17566;SDS011;8901;52.088;5.084;2023-07-31T09:49:17;2.93;;;2.80;;
17566;SDS011;8901;52.088;5.084;2023-07-31T09:51:44;2.90;;;2.70;;
17566;SDS011;8901;52.088;5.084;2023-07-31T09:54:12;3.20;;;2.90;;
17566;SDS011;8901;52.088;5.084;2023-07-31T09:56:41;3.03;;;2.83;;
17566;SDS011;8901;52.088;5.084;2023-07-31T09:59:09;3.23;;;2.90;;
17566;SDS011;8901;52.088;5.084;2023-07-31T10:01:37;3.33;;;3.13;;
17566;SDS011;8901;52.088;5.084;2023-07-31T10:04:05;3.47;;;3.20;;
17566;SDS011;8901;52.088;5.084;2023-07-31T10:06:34;4.70;;;3.30;;
17566;SDS011;8901;52.088;5.084;2023-07-31T10:09:01;3.40;;;3.20;;
17566;SDS011;8901;52.088;5.084;2023-07-31T10:11:29;3.97;;;3.67;;
17566;SDS011;8901;52.088;5.084;2023-07-31T10:13:57;3.63;;;3.30;;
17566;SDS011;8901;52.088;5.084;2023-07-31T10:16:25;4.27;;;3.33;;
17566;SDS011;8901;52.088;5.084;2023-07-31T10:18:53;4.90;;;3.30;;
17566;SDS011;8901;52.088;5.084;2023-07-31T10:21:21;8.77;;;3.88;;
17566;SDS011;8901;52.088;5.084;2023-07-31T10:23:49;10.45;;;5.28;;
17566;SDS011;8901;52.088;5.084;2023-07-31T10:26:17;4.20;;;3.80;;
17566;SDS011;8901;52.088;5.084;2023-07-31T10:28:46;4.47;;;3.73;;
17566;SDS011;8901;52.088;5.084;2023-07-31T10:31:13;6.70;;;4.00;;
17566;SDS011;8901;52.088;5.084;2023-07-31T10:33:41;4.57;;;3.23;;
17566;SDS011;8901;52.088;5.084;2023-07-31T10:36:12;4.33;;;3.93;;
17566;SDS011;8901;52.088;5.084;2023-07-31T10:38:40;4.40;;;4.00;;
17566;SDS011;8901;52.088;5.084;2023-07-31T10:41:09;4.30;;;3.90;;
17566;SDS011;8901;52.088;5.084;2023-07-31T10:43:36;4.20;;;3.40;;
17566;SDS011;8901;52.088;5.084;2023-07-31T10:46:06;4.30;;;3.90;;
17566;SDS011;8901;52.088;5.084;2023-07-31T10:48:34;4.13;;;3.70;;
17566;SDS011;8901;52.088;5.084;2023-07-31T10:51:02;4.13;;;3.73;;
17566;SDS011;8901;52.088;5.084;2023-07-31T10:53:33;5.10;;;4.50;;
17566;SDS011;8901;52.088;5.084;2023-07-31T10:56:01;5.30;;;4.78;;
17566;SDS011;8901;52.088;5.084;2023-07-31T10:58:31;12.57;;;10.37;;
17566;SDS011;8901;52.088;5.084;2023-07-31T11:00:58;22.80;;;17.48;;
17566;SDS011;8901;52.088;5.084;2023-07-31T11:03:27;18.50;;;15.13;;
17566;SDS011;8901;52.088;5.084;2023-07-31T11:05:59;17.57;;;14.37;;
17566;SDS011;8901;52.088;5.084;2023-07-31T11:08:28;18.30;;;15.77;;
17566;SDS011;8901;52.088;5.084;2023-07-31T11:11:04;96.47;;;76.27;;
17566;SDS011;8901;52.088;5.084;2023-07-31T11:13:33;56.47;;;43.70;;
17566;SDS011;8901;52.088;5.084;2023-07-31T11:16:01;33.70;;;26.37;;
17566;SDS011;8901;52.088;5.084;2023-07-31T11:18:28;34.20;;;27.23;;
17566;SDS011;8901;52.088;5.084;2023-07-31T11:20:55;43.60;;;32.37;;
17566;SDS011;8901;52.088;5.084;2023-07-31T11:23:22;18.87;;;16.57;;
17566;SDS011;8901;52.088;5.084;2023-07-31T11:25:50;28.50;;;23.27;;
17566;SDS011;8901;52.088;5.084;2023-07-31T11:28:17;62.10;;;47.15;;
17566;SDS011;8901;52.088;5.084;2023-07-31T11:30:46;43.33;;;36.37;;
17566;SDS011;8901;52.088;5.084;2023-07-31T11:33:13;54.13;;;42.07;;
17566;SDS011;8901;52.088;5.084;2023-07-31T11:35:43;41.80;;;34.47;;
17566;SDS011;8901;52.088;5.084;2023-07-31T11:38:11;21.70;;;17.60;;
17566;SDS011;8901;52.088;5.084;2023-07-31T11:40:41;24.43;;;20.80;;
17566;SDS011;8901;52.088;5.084;2023-07-31T11:43:08;38.20;;;29.13;;
17566;SDS011;8901;52.088;5.084;2023-07-31T11:45:36;34.70;;;24.57;;
17566;SDS011;8901;52.088;5.084;2023-07-31T11:48:05;11.33;;;8.47;;
17566;SDS011;8901;52.088;5.084;2023-07-31T11:50:33;12.63;;;11.00;;
17566;SDS011;8901;52.088;5.084;2023-07-31T11:53:01;18.03;;;14.80;;
17566;SDS011;8901;52.088;5.084;2023-07-31T11:55:30;16.23;;;13.90;;
17566;SDS011;8901;52.088;5.084;2023-07-31T11:57:57;13.87;;;12.30;;
17566;SDS011;8901;52.088;5.084;2023-07-31T12:00:25;14.47;;;12.20;;
17566;SDS011;8901;52.088;5.084;2023-07-31T12:02:54;24.03;;;18.67;;
17566;SDS011;8901;52.088;5.084;2023-07-31T12:05:23;29.90;;;22.73;;
17566;SDS011;8901;52.088;5.084;2023-07-31T12:07:50;13.90;;;11.30;;
17566;SDS011;8901;52.088;5.084;2023-07-31T12:10:24;16.73;;;13.77;;
17566;SDS011;8901;52.088;5.084;2023-07-31T12:13:02;13.20;;;11.27;;
17566;SDS011;8901;52.088;5.084;2023-07-31T12:15:32;12.07;;;9.93;;
17566;SDS011;8901;52.088;5.084;2023-07-31T12:17:59;12.93;;;11.47;;
17566;SDS011;8901;52.088;5.084;2023-07-31T12:20:28;14.10;;;11.37;;
17566;SDS011;8901;52.088;5.084;2023-07-31T12:22:56;16.37;;;13.63;;
17566;SDS011;8901;52.088;5.084;2023-07-31T12:25:28;8.40;;;7.63;;
17566;SDS011;8901;52.088;5.084;2023-07-31T12:27:55;14.63;;;12.73;;
17566;SDS011;8901;52.088;5.084;2023-07-31T12:30:28;11.63;;;10.23;;
17566;SDS011;8901;52.088;5.084;2023-07-31T12:32:56;12.32;;;9.63;;
17566;SDS011;8901;52.088;5.084;2023-07-31T12:35:23;7.27;;;6.67;;
17566;SDS011;8901;52.088;5.084;2023-07-31T12:37:51;9.17;;;8.23;;
17566;SDS011;8901;52.088;5.084;2023-07-31T12:40:19;7.53;;;6.83;;
17566;SDS011;8901;52.088;5.084;2023-07-31T12:42:46;8.10;;;7.17;;
17566;SDS011;8901;52.088;5.084;2023-07-31T12:45:14;11.53;;;10.33;;
17566;SDS011;8901;52.088;5.084;2023-07-31T12:47:41;11.87;;;10.53;;
17566;SDS011;8901;52.088;5.084;2023-07-31T12:50:08;8.83;;;7.73;;
17566;SDS011;8901;52.088;5.084;2023-07-31T12:52:35;9.10;;;8.07;;
17566;SDS011;8901;52.088;5.084;2023-07-31T12:55:04;11.10;;;9.30;;
17566;SDS011;8901;52.088;5.084;2023-07-31T12:57:32;5.40;;;5.00;;
17566;SDS011;8901;52.088;5.084;2023-07-31T12:59:59;7.00;;;6.30;;
17566;SDS011;8901;52.088;5.084;2023-07-31T13:02:26;6.67;;;5.87;;
17566;SDS011;8901;52.088;5.084;2023-07-31T13:04:53;7.27;;;6.57;;
17566;SDS011;8901;52.088;5.084;2023-07-31T13:07:21;8.60;;;7.77;;
17566;SDS011;8901;52.088;5.084;2023-07-31T13:09:48;7.33;;;6.17;;
17566;SDS011;8901;52.088;5.084;2023-07-31T13:12:17;6.27;;;5.67;;
17566;SDS011;8901;52.088;5.084;2023-07-31T13:14:44;8.27;;;7.33;;
17566;SDS011;8901;52.088;5.084;2023-07-31T13:17:12;6.37;;;5.47;;
17566;SDS011;8901;52.088;5.084;2023-07-31T13:19:39;6.00;;;5.50;;
17566;SDS011;8901;52.088;5.084;2023-07-31T13:22:07;7.30;;;6.60;;
17566;SDS011;8901;52.088;5.084;2023-07-31T13:24:34;7.17;;;6.47;;
17566;SDS011;8901;52.088;5.084;2023-07-31T13:27:01;7.45;;;6.63;;
17566;SDS011;8901;52.088;5.084;2023-07-31T13:29:30;5.40;;;4.90;;
17566;SDS011;8901;52.088;5.084;2023-07-31T13:31:57;4.60;;;4.20;;
17566;SDS011;8901;52.088;5.084;2023-07-31T13:34:25;4.33;;;3.97;;
17566;SDS011;8901;52.088;5.084;2023-07-31T13:36:53;4.50;;;4.10;;
17566;SDS011;8901;52.088;5.084;2023-07-31T13:39:20;4.97;;;4.57;;
17566;SDS011;8901;52.088;5.084;2023-07-31T13:41:47;4.20;;;3.90;;
17566;SDS011;8901;52.088;5.084;2023-07-31T13:44:15;5.47;;;4.97;;
17566;SDS011;8901;52.088;5.084;2023-07-31T13:46:43;4.30;;;3.90;;
17566;SDS011;8901;52.088;5.084;2023-07-31T13:49:10;4.10;;;3.80;;
17566;SDS011;8901;52.088;5.084;2023-07-31T13:51:38;4.20;;;3.80;;
17566;SDS011;8901;52.088;5.084;2023-07-31T13:54:05;4.10;;;3.80;;
17566;SDS011;8901;52.088;5.084;2023-07-31T13:56:34;3.37;;;3.17;;
17566;SDS011;8901;52.088;5.084;2023-07-31T13:59:01;3.83;;;3.63;;
17566;SDS011;8901;52.088;5.084;2023-07-31T14:01:28;4.70;;;4.33;;
17566;SDS011;8901;52.088;5.084;2023-07-31T14:03:57;4.07;;;3.70;;
17566;SDS011;8901;52.088;5.084;2023-07-31T14:06:24;4.10;;;3.80;;
17566;SDS011;8901;52.088;5.084;2023-07-31T14:08:51;4.10;;;3.80;;
17566;SDS011;8901;52.088;5.084;2023-07-31T14:11:18;4.17;;;3.87;;
17566;SDS011;8901;52.088;5.084;2023-07-31T14:13:45;4.07;;;3.70;;
17566;SDS011;8901;52.088;5.084;2023-07-31T14:16:13;3.70;;;3.40;;
17566;SDS011;8901;52.088;5.084;2023-07-31T14:18:40;4.68;;;3.72;;
17566;SDS011;8901;52.088;5.084;2023-07-31T14:21:09;3.93;;;3.63;;
17566;SDS011;8901;52.088;5.084;2023-07-31T14:23:36;3.65;;;3.45;;
17566;SDS011;8901;52.088;5.084;2023-07-31T14:26:03;4.00;;;3.60;;
17566;SDS011;8901;52.088;5.084;2023-07-31T14:28:30;4.07;;;3.77;;
17566;SDS011;8901;52.088;5.084;2023-07-31T14:30:57;3.83;;;3.53;;
17566;SDS011;8901;52.088;5.084;2023-07-31T14:33:25;4.20;;;3.90;;
17566;SDS011;8901;52.088;5.084;2023-07-31T14:35:52;3.87;;;3.57;;
17566;SDS011;8901;52.088;5.084;2023-07-31T14:38:20;4.87;;;4.40;;
17566;SDS011;8901;52.088;5.084;2023-07-31T14:40:48;3.97;;;3.67;;
17566;SDS011;8901;52.088;5.084;2023-07-31T14:43:15;4.23;;;3.70;;
17566;SDS011;8901;52.088;5.084;2023-07-31T14:45:42;3.70;;;3.40;;
17566;SDS011;8901;52.088;5.084;2023-07-31T14:48:11;3.50;;;3.20;;
17566;SDS011;8901;52.088;5.084;2023-07-31T14:50:38;3.20;;;3.00;;
17566;SDS011;8901;52.088;5.084;2023-07-31T14:53:05;3.53;;;3.33;;
17566;SDS011;8901;52.088;5.084;2023-07-31T14:55:34;3.70;;;3.40;;
17566;SDS011;8901;52.088;5.084;2023-07-31T14:58:01;3.67;;;3.40;;
17566;SDS011;8901;52.088;5.084;2023-07-31T15:00:29;4.00;;;3.70;;